createdAt,value
2022-11-12T00:04:32.268Z,6.4
2022-11-12T00:09:30.440Z,6.3
2022-11-12T00:14:29.056Z,6.2
2022-11-12T00:19:26.876Z,6
2022-11-12T00:24:24.855Z,6
2022-11-12T00:29:23.184Z,6.2
2022-11-12T00:34:21.550Z,6.4
2022-11-12T00:39:19.910Z,6.6
2022-11-12T00:44:18.155Z,6.7
2022-11-12T00:49:16.308Z,6.7
2022-11-12T00:54:14.479Z,6.6
2022-11-12T00:59:12.619Z,6.5
2022-11-12T01:04:10.662Z,6.4
2022-11-12T01:09:08.964Z,6.4
2022-11-12T01:14:07.310Z,6.6
2022-11-12T01:19:05.689Z,6.7
2022-11-12T01:24:03.989Z,6.8
2022-11-12T01:29:02.611Z,7
2022-11-12T01:34:01.169Z,7
2022-11-12T01:38:59.166Z,6.9
2022-11-12T01:43:57.459Z,6.9
2022-11-12T01:48:55.935Z,7
2022-11-12T01:53:54.499Z,7
2022-11-12T01:58:53.004Z,7.1
2022-11-12T02:03:51.262Z,7.1
2022-11-12T02:08:49.531Z,7
2022-11-12T02:13:47.910Z,6.7
2022-11-12T02:18:45.865Z,6.6
2022-11-12T02:23:44.213Z,6.6
2022-11-12T02:28:42.236Z,6.5
2022-11-12T02:33:40.427Z,6.4
2022-11-12T02:38:38.540Z,6.4
2022-11-12T02:43:36.912Z,6.4
2022-11-12T02:48:34.995Z,6.4
2022-11-12T02:53:33.586Z,6.3
2022-11-12T02:58:32.102Z,6.1
2022-11-12T03:03:30.346Z,6.1
2022-11-12T03:08:28.746Z,6
2022-11-12T03:13:27.137Z,6
2022-11-12T03:18:25.602Z,6
2022-11-12T03:23:23.516Z,5.9
2022-11-12T03:28:21.672Z,5.5
2022-11-12T03:33:19.662Z,5.4
2022-11-12T03:38:17.678Z,5.1
2022-11-12T03:43:15.812Z,4.9
2022-11-12T03:48:13.700Z,4.7
2022-11-12T03:53:11.898Z,4.5
2022-11-12T03:58:09.784Z,4.2
2022-11-12T04:03:07.870Z,4
2022-11-12T04:08:06.086Z,3.8
2022-11-12T04:13:04.387Z,3.7
2022-11-12T04:18:02.570Z,3.7
2022-11-12T04:23:00.493Z,3.6
2022-11-12T04:27:58.420Z,3.4
2022-11-12T04:32:56.781Z,3.2
2022-11-12T04:37:54.738Z,3.2
2022-11-12T04:42:52.765Z,3.1
2022-11-12T04:47:50.847Z,3.1
2022-11-12T04:52:49.065Z,2.9
2022-11-12T04:57:47.074Z,2.8
2022-11-12T05:02:45.154Z,2.8
2022-11-12T05:07:43.198Z,2.7
2022-11-12T05:12:41.498Z,2.7
2022-11-12T05:17:39.638Z,2.6
2022-11-12T05:22:44.222Z,2.7
2022-11-12T05:27:36.243Z,2.7
2022-11-12T05:32:34.697Z,2.9
2022-11-12T05:37:33.222Z,3.1
2022-11-12T05:42:31.337Z,3.3
2022-11-12T05:47:29.843Z,3.5
2022-11-12T05:52:29.330Z,3.8
2022-11-12T05:57:27.515Z,4.3
2022-11-12T06:02:26.230Z,5
2022-11-12T06:07:25.007Z,5.5
2022-11-12T06:12:24.632Z,6.2
2022-11-12T06:17:23.577Z,8.4
2022-11-12T06:22:28.148Z,13.9
2022-11-12T06:27:30.944Z,17.8
2022-11-12T06:32:27.562Z,14.5
2022-11-12T06:37:22.900Z,12.2
2022-11-12T06:42:19.988Z,11.1
2022-11-12T06:47:17.759Z,10.8
2022-11-12T06:52:16.775Z,10.6
2022-11-12T06:57:13.917Z,11
2022-11-12T07:02:12.212Z,11.1
2022-11-12T07:07:11.206Z,11.1
2022-11-12T07:12:08.286Z,10.3
2022-11-12T07:17:06.019Z,9.9
2022-11-12T07:22:03.972Z,9.5
2022-11-12T07:27:01.779Z,9.4
2022-11-12T07:31:59.774Z,9.4
2022-11-12T07:36:58.044Z,9.3
2022-11-12T07:41:57.181Z,9.5
2022-11-12T07:46:55.922Z,10.7
2022-11-12T07:51:55.598Z,12.7
2022-11-12T07:56:55.151Z,14.3
2022-11-12T08:01:54.431Z,14.9
2022-11-12T08:06:52.863Z,14.9
2022-11-12T08:11:50.243Z,13.9
2022-11-12T08:16:48.818Z,13.4
2022-11-12T08:21:47.516Z,14.6
2022-11-12T08:26:48.222Z,18.3
2022-11-12T08:31:56.461Z,26.1
2022-11-12T08:36:58.737Z,28.3
2022-11-12T08:41:58.523Z,29.3
2022-11-12T08:46:55.859Z,30.3
2022-11-12T08:51:48.696Z,24.6
2022-11-12T08:56:42.605Z,21.4
2022-11-12T09:01:39.239Z,20.4
2022-11-12T09:06:43.288Z,25.1
2022-11-12T09:11:37.520Z,21.3
2022-11-12T09:16:33.014Z,19.7
2022-11-12T09:21:32.112Z,20.6
2022-11-12T09:26:31.292Z,20.1
2022-11-12T09:31:28.315Z,19.8
2022-11-12T09:36:28.035Z,20.8
2022-11-12T09:41:23.856Z,18.7
2022-11-12T09:46:27.506Z,18.1
2022-11-12T09:51:18.990Z,18.2
2022-11-12T09:56:17.054Z,18
2022-11-12T10:01:15.543Z,18.6
2022-11-12T10:06:16.888Z,19.4
2022-11-12T10:11:12.754Z,19.3
2022-11-12T10:16:10.835Z,19
2022-11-12T10:21:09.093Z,18.9
2022-11-12T10:26:07.201Z,18.9
2022-11-12T10:31:05.103Z,18.9
2022-11-12T10:36:03.590Z,19.2
2022-11-12T10:41:05.579Z,19.6
2022-11-12T10:46:01.197Z,19.6
2022-11-12T10:50:58.837Z,19.2
2022-11-12T10:55:56.862Z,19.2
2022-11-12T11:00:54.556Z,18.2
2022-11-12T11:05:52.235Z,17.3
2022-11-12T11:10:50.359Z,17.3
2022-11-12T11:15:48.668Z,17.6
2022-11-12T11:20:47.444Z,18.1
2022-11-12T11:25:45.313Z,17.9
2022-11-12T11:30:43.582Z,18.1
2022-11-12T11:35:41.949Z,17.9
2022-11-12T11:40:40.820Z,18.2
2022-11-12T11:45:38.619Z,17.6
2022-11-12T11:50:36.698Z,17.5
2022-11-12T11:55:34.744Z,17.2
2022-11-12T12:00:33.492Z,17.7
2022-11-12T12:05:32.001Z,17.3
2022-11-12T12:10:46.493Z,16.9
2022-11-12T12:15:28.085Z,16.7
2022-11-12T12:20:26.516Z,17
2022-11-12T12:25:25.301Z,17.5
2022-11-12T12:30:23.170Z,16.8
2022-11-12T12:35:20.767Z,16.1
2022-11-12T12:40:18.729Z,15.5
2022-11-12T12:45:16.436Z,15
2022-11-12T12:50:14.548Z,14.7
2022-11-12T12:55:12.404Z,14.8
2022-11-12T13:00:15.294Z,15.2
2022-11-12T13:05:09.989Z,16.1
2022-11-12T13:10:09.428Z,16.9
2022-11-12T13:15:07.679Z,16.4
2022-11-12T13:20:06.536Z,16.6
2022-11-12T13:25:04.396Z,15.9
2022-11-12T13:30:01.999Z,15.3
2022-11-12T13:34:59.354Z,14.2
2022-11-12T13:39:56.595Z,13.2
2022-11-12T13:44:56.183Z,13.1
2022-11-12T13:49:53.018Z,13.6
2022-11-12T13:54:52.067Z,13.6
2022-11-12T13:59:50.367Z,13.7
2022-11-12T14:04:48.403Z,13.4
2022-11-12T14:09:46.367Z,13.3
2022-11-12T14:14:43.878Z,12.5
2022-11-12T14:19:41.669Z,11.8
2022-11-12T14:24:39.317Z,11.3
2022-11-12T14:29:41.191Z,11.2
2022-11-12T14:34:34.927Z,10.9
2022-11-12T14:39:33.091Z,10.6
2022-11-12T14:44:31.134Z,10.3
2022-11-12T14:49:28.971Z,9.9
2022-11-12T14:54:26.988Z,9.6
2022-11-12T14:59:24.993Z,9.3
2022-11-12T15:04:22.625Z,9.1
2022-11-12T15:09:20.549Z,8.6
2022-11-12T15:14:18.454Z,8.3
2022-11-12T15:19:16.710Z,8.2
2022-11-12T15:24:14.845Z,8.1
2022-11-12T15:29:13.076Z,7.9
2022-11-12T15:34:11.306Z,7.8
2022-11-12T15:39:09.396Z,7.8
2022-11-12T15:44:07.472Z,7.8
2022-11-12T15:49:05.803Z,7.9
2022-11-12T15:54:04.201Z,8
2022-11-12T15:59:02.713Z,7.8
2022-11-12T16:04:01.463Z,7.3
2022-11-12T16:08:59.902Z,8
2022-11-12T16:13:58.220Z,8.1
2022-11-12T16:18:56.594Z,8.1
2022-11-12T16:23:55.114Z,8.1
2022-11-12T16:28:53.677Z,8.1
2022-11-12T16:33:52.232Z,7.8
2022-11-12T16:38:50.374Z,7.6
2022-11-12T16:43:48.281Z,7.6
2022-11-12T16:48:46.382Z,7.7
2022-11-12T16:53:44.998Z,7.7
2022-11-12T16:58:43.463Z,7.7
2022-11-12T17:03:41.595Z,7.8
2022-11-12T17:08:40.092Z,7.9
2022-11-12T17:13:38.135Z,7.9
2022-11-12T17:18:36.250Z,8
2022-11-12T17:23:35.371Z,7.9
2022-11-12T17:28:33.563Z,8.3
2022-11-12T17:33:31.738Z,8.3
2022-11-12T17:38:30.188Z,8.1
2022-11-12T17:43:28.549Z,7.9
2022-11-12T17:48:26.472Z,7.8
2022-11-12T17:53:25.259Z,7.8
2022-11-12T17:58:23.340Z,7.6
2022-11-12T18:03:21.255Z,7.4
2022-11-12T18:08:19.322Z,7.1
2022-11-12T18:13:17.477Z,7
2022-11-12T18:18:15.864Z,6.9
2022-11-12T18:23:13.989Z,6.7
2022-11-12T18:28:12.097Z,6.6
2022-11-12T18:33:10.315Z,6.4
2022-11-12T18:38:08.996Z,6.2
2022-11-12T18:43:06.703Z,6.1
2022-11-12T18:48:04.814Z,5.7
2022-11-12T18:53:03.198Z,5.2
2022-11-12T18:58:01.215Z,5
2022-11-12T19:02:59.228Z,4.7
2022-11-12T19:07:57.288Z,4.5
2022-11-12T19:12:55.552Z,4.3
2022-11-12T19:17:53.834Z,4.2
2022-11-12T19:22:52.341Z,4.4
2022-11-12T19:27:50.759Z,4.6
2022-11-12T19:32:49.368Z,4.6
2022-11-12T19:37:47.756Z,4.4
2022-11-12T19:42:45.463Z,4.3
2022-11-12T19:47:43.612Z,4.1
2022-11-12T19:52:42.044Z,4.2
2022-11-12T19:57:40.341Z,4.1
2022-11-12T20:02:38.463Z,4
2022-11-12T20:07:36.618Z,3.9
2022-11-12T20:12:34.965Z,4
2022-11-12T20:17:33.505Z,3.9
2022-11-12T20:22:32.228Z,4
2022-11-12T20:27:30.157Z,4.1
2022-11-12T20:32:28.880Z,4
2022-11-12T20:37:27.350Z,3.9
2022-11-12T20:42:25.572Z,3.9
2022-11-12T20:47:24.037Z,3.8
2022-11-12T20:52:22.613Z,3.8
2022-11-12T20:57:21.252Z,3.9
2022-11-12T21:02:19.633Z,4
2022-11-12T21:07:18.483Z,4
2022-11-12T21:12:16.765Z,3.9
2022-11-12T21:17:15.087Z,3.8
2022-11-12T21:22:13.256Z,3.7
2022-11-12T21:27:11.376Z,3.7
2022-11-12T21:32:09.509Z,3.4
2022-11-12T21:37:07.817Z,3.4
2022-11-12T21:42:06.062Z,3.6
2022-11-12T21:47:04.453Z,3.7
2022-11-12T21:52:02.758Z,3.4
2022-11-12T21:57:01.101Z,3.2
2022-11-12T22:01:59.424Z,3.2
2022-11-12T22:06:57.633Z,3.2
2022-11-12T22:11:55.738Z,3
2022-11-12T22:16:54.113Z,2.9
2022-11-12T22:21:52.306Z,2.9
2022-11-12T22:26:50.507Z,2.8
2022-11-12T22:31:48.668Z,2.6
2022-11-12T22:36:47.204Z,2.6
2022-11-12T22:41:45.346Z,2.5
2022-11-12T22:46:43.466Z,2.6
2022-11-12T22:51:41.762Z,2.6
2022-11-12T22:56:40.400Z,2.5
2022-11-12T23:01:38.637Z,2.6
2022-11-12T23:06:37.023Z,2.6
2022-11-12T23:11:35.357Z,2.7
2022-11-12T23:16:33.617Z,2.6
2022-11-12T23:21:31.887Z,2.7
2022-11-12T23:26:30.321Z,2.9
2022-11-12T23:31:29.189Z,2.9
2022-11-12T23:36:27.703Z,3.1
2022-11-12T23:41:25.797Z,3.2
2022-11-12T23:46:24.223Z,3.3
2022-11-12T23:51:22.685Z,3.4
2022-11-12T23:56:21.155Z,3.5
